Time;durP1;ratioP1;P1;durP2;ratioP2;P2;SDS_P1;SDS_P2;PMS_P1;PMS_P2;Temp;Humidity;BMP_temperature;BMP_pressure;BME280_temperature;BME280_humidity;BME280_pressure;Samples;Min_cycle;Max_cycle;Signal;HPM_P1;HPM_P2
2022/02/01 00:01:38;;;;;;;33.47;15.48;;;6.20;98.80;;;;;;4935481;29;20083;-73
2022/02/01 00:04:07;;;;;;;37.65;15.45;;;6.20;98.80;;;;;;4934575;29;20098;-73
2022/02/01 00:06:53;;;;;;;38.25;16.52;;;6.20;98.90;;;;;;4934661;28;20091;-73
2022/02/01 00:09:34;;;;;;;36.75;15.43;;;6.20;98.90;;;;;;4936053;29;20147;-73
2022/02/01 00:15:04;;;;;;;32.95;16.15;;;6.00;99.50;;;;;;4935556;28;20402;-73
2022/02/01 00:20:08;;;;;;;35.45;16.55;;;5.90;99.80;;;;;;4935730;28;20422;-73
2022/02/01 00:41:12;;;;;;;41.72;16.50;;;5.80;99.90;;;;;;4934826;28;20127;-72
2022/02/01 00:43:37;;;;;;;35.78;16.30;;;5.70;99.90;;;;;;4949714;28;20442;-74
2022/02/01 00:46:03;;;;;;;34.58;15.43;;;5.70;99.90;;;;;;4934786;28;20094;-71
2022/02/01 00:48:29;;;;;;;31.88;13.65;;;5.70;99.90;;;;;;4934600;28;20409;-73
2022/02/01 00:50:55;;;;;;;36.03;15.57;;;5.80;99.90;;;;;;4934291;29;20504;-72
2022/02/01 00:53:26;;;;;;;34.47;14.52;;;5.80;99.90;;;;;;4934550;28;20027;-72
2022/02/01 00:55:56;;;;;;;33.42;15.65;;;5.80;99.90;;;;;;4934676;28;20457;-73
2022/02/01 00:58:22;;;;;;;29.65;14.70;;;5.90;99.90;;;;;;4933746;29;20512;-72
2022/02/01 01:00:48;;;;;;;31.02;15.10;;;5.90;99.90;;;;;;4934543;28;20669;-72
2022/02/01 01:03:14;;;;;;;32.00;13.90;;;5.90;99.90;;;;;;4934766;29;20040;-72
2022/02/01 01:05:39;;;;;;;32.05;13.73;;;6.00;99.90;;;;;;4934438;28;20123;-72
2022/02/01 01:08:05;;;;;;;30.48;13.48;;;6.10;99.90;;;;;;4934391;28;20115;-73
2022/02/01 01:10:31;;;;;;;30.48;13.88;;;6.10;99.90;;;;;;4934508;28;20440;-72
2022/02/01 01:15:47;;;;;;;31.48;13.23;;;6.10;99.90;;;;;;4934599;28;20079;-72
2022/02/01 01:45:45;;;;;;;23.48;10.35;;;5.50;99.90;;;;;;4933804;28;20067;-74
2022/02/01 01:53:40;;;;;;;18.15;7.72;;;5.70;99.90;;;;;;4933661;28;20123;-72
2022/02/01 01:56:05;;;;;;;19.38;6.95;;;5.70;99.90;;;;;;4933706;28;20118;-73
2022/02/01 01:58:31;;;;;;;14.10;6.75;;;5.70;99.90;;;;;;4933569;28;20038;-74
2022/02/01 02:03:22;;;;;;;21.33;7.32;;;5.70;99.90;;;;;;4934296;29;20027;-72
2022/02/01 02:05:48;;;;;;;17.58;6.45;;;5.60;99.90;;;;;;4933987;28;20112;-72
2022/02/01 02:08:14;;;;;;;21.92;6.68;;;5.60;99.90;;;;;;4933496;28;20048;-74
2022/02/01 02:10:52;;;;;;;22.85;8.00;;;5.60;99.90;;;;;;4933488;28;20042;-74
2022/02/01 02:15:58;;;;;;;14.13;5.72;;;5.80;99.90;;;;;;4933808;28;20042;-74
2022/02/01 02:18:25;;;;;;;18.58;6.55;;;5.80;99.90;;;;;;4933902;29;20119;-73
2022/02/01 02:20:52;;;;;;;16.40;5.97;;;5.70;99.90;;;;;;4933424;28;20474;-72
2022/02/01 02:23:18;;;;;;;15.48;5.70;;;5.70;99.90;;;;;;4933480;28;20118;-72
2022/02/01 02:25:44;;;;;;;13.93;5.20;;;5.80;99.90;;;;;;4933474;28;20048;-74
2022/02/01 02:28:13;;;;;;;16.92;5.68;;;5.90;99.90;;;;;;4933204;28;20040;-74
2022/02/01 02:30:39;;;;;;;16.42;3.88;;;5.90;99.90;;;;;;4948668;28;20354;-73
2022/02/01 02:33:12;;;;;;;22.23;4.13;;;5.90;99.90;;;;;;4933745;29;20038;-73
2022/02/01 02:36:20;;;;;;;16.00;4.03;;;5.80;99.90;;;;;;4940102;28;20035;-72
2022/02/01 02:39:00;;;;;;;17.10;4.60;;;6.00;99.90;;;;;;4948829;28;20373;-73
2022/02/01 02:41:35;;;;;;;12.10;4.00;;;5.90;99.90;;;;;;4971232;28;20122;-73
2022/02/01 02:46:49;;;;;;;14.93;3.45;;;5.90;99.90;;;;;;4956325;28;20066;-72
2022/02/01 02:49:18;;;;;;;23.77;3.65;;;5.80;99.90;;;;;;4956034;28;20043;-72
2022/02/01 02:51:43;;;;;;;14.40;3.03;;;5.70;99.90;;;;;;4956179;28;20122;-72
2022/02/01 02:54:15;;;;;;;26.10;4.00;;;5.70;99.90;;;;;;4971454;28;20454;-72
2022/02/01 02:56:46;;;;;;;16.92;3.15;;;5.70;99.90;;;;;;4971053;28;20113;-72
2022/02/01 02:59:13;;;;;;;11.50;2.25;;;5.70;99.90;;;;;;4956040;28;20027;-72
2022/02/01 03:01:47;;;;;;;18.08;2.78;;;5.70;99.90;;;;;;4955895;28;20110;-73
2022/02/01 03:04:14;;;;;;;14.68;2.60;;;5.70;99.90;;;;;;4955805;28;20034;-73
2022/02/01 03:06:41;;;;;;;7.75;2.10;;;5.70;99.90;;;;;;4955909;28;20103;-73
2022/02/01 03:09:06;;;;;;;16.00;2.80;;;5.70;99.90;;;;;;4956063;28;20055;-73
2022/02/01 03:11:32;;;;;;;30.80;2.72;;;5.50;99.90;;;;;;4970863;28;20035;-73
2022/02/01 03:14:00;;;;;;;17.17;2.65;;;5.50;99.90;;;;;;4955718;28;20035;-73
2022/02/01 03:16:51;;;;;;;15.43;2.58;;;5.50;99.90;;;;;;4955680;28;20027;-73
2022/02/01 03:22:01;;;;;;;20.27;2.53;;;5.50;99.90;;;;;;4955680;28;20113;-72
2022/02/01 03:24:26;;;;;;;19.52;2.33;;;5.40;99.90;;;;;;4955916;28;20063;-73
2022/02/01 03:26:52;;;;;;;25.88;3.17;;;5.50;99.90;;;;;;4955488;28;20136;-73
2022/02/01 03:29:18;;;;;;;21.90;2.65;;;5.50;99.90;;;;;;4970415;28;20310;-73
2022/02/01 03:31:43;;;;;;;19.40;3.17;;;5.50;99.90;;;;;;4955366;28;20126;-73
2022/02/01 03:34:09;;;;;;;21.13;2.85;;;5.50;99.90;;;;;;4955321;28;20122;-73
2022/02/01 03:36:34;;;;;;;14.85;2.53;;;5.40;99.90;;;;;;4970389;28;20452;-72
2022/02/01 03:39:01;;;;;;;14.30;2.75;;;5.50;99.90;;;;;;4970966;28;20356;-73
2022/02/01 03:41:27;;;;;;;21.85;2.30;;;5.40;99.90;;;;;;4954834;28;20134;-73
2022/02/01 03:43:53;;;;;;;17.13;2.30;;;5.30;99.90;;;;;;4970020;28;20035;-72
2022/02/01 03:46:20;;;;;;;10.80;2.20;;;5.40;99.90;;;;;;4954731;28;20143;-73
2022/02/01 03:48:45;;;;;;;19.25;2.70;;;5.50;99.90;;;;;;4969919;28;20038;-72
2022/02/01 03:51:11;;;;;;;19.48;3.03;;;5.40;99.90;;;;;;4955436;28;20063;-73
2022/02/01 03:53:37;;;;;;;18.50;2.97;;;5.40;99.90;;;;;;4969939;28;20038;-73
2022/02/01 03:56:04;;;;;;;21.30;3.78;;;5.40;99.90;;;;;;4969799;28;20122;-73
2022/02/01 03:58:30;;;;;;;23.67;3.80;;;5.40;99.90;;;;;;4954870;28;20444;-72
2022/02/01 04:00:56;;;;;;;25.55;3.38;;;5.40;99.90;;;;;;4954769;28;20031;-72
2022/02/01 04:03:21;;;;;;;21.75;3.85;;;5.40;99.90;;;;;;4970218;28;20130;-72
2022/02/01 04:05:47;;;;;;;22.30;3.10;;;5.30;99.90;;;;;;4969716;28;20114;-73
2022/02/01 04:08:15;;;;;;;28.42;3.72;;;5.40;99.90;;;;;;4969623;28;20031;-73
2022/02/01 04:10:41;;;;;;;;;;;5.30;99.90;;;;;;4955095;28;20035;-73
2022/02/01 04:13:07;;;;;;;17.08;2.30;;;5.40;99.90;;;;;;4953590;28;20320;-72
2022/02/01 04:15:33;;;;;;;19.50;3.10;;;5.40;99.90;;;;;;4954513;28;20041;-73
2022/02/01 04:17:59;;;;;;;24.05;3.35;;;5.50;99.90;;;;;;4954964;28;20098;-72
2022/02/01 04:20:26;;;;;;;24.80;2.80;;;5.50;99.90;;;;;;4954506;28;20089;-73
2022/02/01 04:22:52;;;;;;;14.87;2.87;;;5.50;99.90;;;;;;4969565;28;20469;-72
2022/02/01 04:25:17;;;;;;;19.55;3.22;;;5.60;99.90;;;;;;4954043;28;20027;-73
2022/02/01 04:27:43;;;;;;;16.90;2.97;;;5.40;99.80;;;;;;4954218;28;20118;-73
2022/02/01 04:30:12;;;;;;;22.50;2.95;;;5.40;99.80;;;;;;4954603;28;20170;-73
2022/02/01 04:32:41;;;;;;;29.73;3.58;;;5.40;99.80;;;;;;4954320;28;20031;-73
2022/02/01 04:35:10;;;;;;;24.45;2.60;;;5.40;99.50;;;;;;4954369;28;20028;-73
2022/02/01 04:37:36;;;;;;;19.60;2.83;;;5.30;99.40;;;;;;4954482;28;20023;-73
2022/02/01 04:40:03;;;;;;;18.63;2.78;;;5.30;99.60;;;;;;4954184;28;20035;-72
2022/02/01 04:42:33;;;;;;;17.25;2.45;;;5.30;99.50;;;;;;4953943;28;20129;-73
2022/02/01 04:44:59;;;;;;;24.35;3.20;;;5.30;99.40;;;;;;4953539;28;20039;-73
2022/02/01 04:47:31;;;;;;;31.13;3.83;;;5.20;99.50;;;;;;4953993;28;20110;-72
2022/02/01 04:49:56;;;;;;;25.92;2.88;;;5.20;99.40;;;;;;4953904;28;20426;-72
2022/02/01 04:52:22;;;;;;;17.25;2.67;;;5.20;99.60;;;;;;4968873;28;20043;-73
2022/02/01 04:54:48;;;;;;;27.73;2.72;;;5.30;99.40;;;;;;4953839;28;20474;-73
2022/02/01 04:57:13;;;;;;;19.80;3.20;;;5.30;99.30;;;;;;4954504;28;20097;-73
2022/02/01 04:59:39;;;;;;;22.67;3.65;;;5.20;99.40;;;;;;4967849;28;20126;-73
2022/02/01 05:02:05;;;;;;;16.25;3.08;;;5.00;99.40;;;;;;4953599;28;20071;-73
2022/02/01 05:04:30;;;;;;;23.30;2.78;;;4.90;99.60;;;;;;4953632;28;20161;-73
2022/02/01 05:06:56;;;;;;;19.45;3.17;;;5.10;99.70;;;;;;4953651;28;20031;-73
2022/02/01 05:09:23;;;;;;;25.08;3.28;;;5.00;99.40;;;;;;4953983;28;20031;-73
2022/02/01 05:11:50;;;;;;;18.50;2.42;;;5.00;99.40;;;;;;4953725;28;20035;-73
2022/02/01 05:14:22;;;;;;;21.90;3.10;;;5.10;99.30;;;;;;4953468;28;20033;-73
2022/02/01 05:19:33;;;;;;;20.63;2.88;;;5.00;99.30;;;;;;4953554;28;20038;-73
2022/02/01 05:22:03;;;;;;;20.02;2.63;;;5.00;99.20;;;;;;4953289;28;20626;-73
2022/02/01 05:24:29;;;;;;;34.50;3.20;;;4.90;99.10;;;;;;4953323;28;20019;-73
2022/02/01 05:26:56;;;;;;;24.90;3.00;;;5.00;99.20;;;;;;4953695;28;20426;-74
2022/02/01 05:29:23;;;;;;;29.50;3.00;;;4.90;99.20;;;;;;4968115;28;20248;-72
2022/02/01 05:31:50;;;;;;;18.40;2.55;;;5.10;99.10;;;;;;4953239;28;20544;-73
2022/02/01 05:34:16;;;;;;;20.33;2.73;;;5.20;99.20;;;;;;4953198;28;20031;-73
2022/02/01 05:36:41;;;;;;;24.73;3.13;;;5.00;99.00;;;;;;4952078;28;20272;-73
2022/02/01 05:39:21;;;;;;;23.88;2.92;;;5.00;99.00;;;;;;4953607;28;20027;-73
2022/02/01 05:41:50;;;;;;;21.65;3.38;;;5.00;99.00;;;;;;4967923;28;20396;-72
2022/02/01 05:44:16;;;;;;;24.92;2.70;;;4.90;99.20;;;;;;4953135;28;20036;-72
2022/02/01 05:46:42;;;;;;;26.10;3.10;;;4.90;99.20;;;;;;4952951;28;20042;-72
2022/02/01 05:49:08;;;;;;;16.40;2.45;;;4.80;99.30;;;;;;4952924;28;20043;-74
2022/02/01 05:51:34;;;;;;;26.83;3.25;;;4.90;99.50;;;;;;4967960;28;20039;-73
2022/02/01 05:54:01;;;;;;;18.48;2.65;;;5.00;99.40;;;;;;4953266;28;20011;-73
2022/02/01 05:56:27;;;;;;;28.48;3.42;;;5.10;99.30;;;;;;4952649;28;20035;-73
2022/02/01 05:58:53;;;;;;;18.17;3.15;;;4.90;99.20;;;;;;4952771;28;20098;-73
2022/02/01 06:01:18;;;;;;;23.35;2.83;;;5.00;99.50;;;;;;4951812;28;20031;-73
2022/02/01 06:03:45;;;;;;;26.92;3.13;;;5.00;99.50;;;;;;4952918;28;20057;-72
2022/02/01 06:06:11;;;;;;;21.42;2.45;;;5.00;99.50;;;;;;4953154;28;20055;-73
2022/02/01 06:08:36;;;;;;;18.90;2.80;;;5.00;99.60;;;;;;4967566;28;20492;-73
2022/02/01 06:11:02;;;;;;;31.20;3.47;;;5.10;99.60;;;;;;4967333;28;20038;-73
2022/02/01 06:13:27;;;;;;;19.90;3.00;;;5.00;99.70;;;;;;4952563;28;20209;-73
2022/02/01 06:15:53;;;;;;;16.95;2.35;;;5.10;99.90;;;;;;4952462;28;20045;-72
2022/02/01 06:18:19;;;;;;;26.02;3.17;;;5.10;99.70;;;;;;4953038;28;20588;-73
2022/02/01 06:20:45;;;;;;;19.25;3.22;;;5.10;99.80;;;;;;4967708;28;20035;-73
2022/02/01 06:23:13;;;;;;;21.92;3.00;;;5.10;99.90;;;;;;4952447;28;20031;-74
2022/02/01 06:28:04;;;;;;;17.05;2.53;;;5.20;99.90;;;;;;4952632;28;20027;-72
2022/02/01 06:30:29;;;;;;;16.38;2.65;;;5.10;99.80;;;;;;4952380;28;20038;-73
2022/02/01 06:32:55;;;;;;;34.72;3.55;;;5.20;99.90;;;;;;4953032;28;20122;-73
2022/02/01 06:35:22;;;;;;;24.50;2.60;;;5.10;99.90;;;;;;4952409;28;20027;-72
2022/02/01 06:37:48;;;;;;;22.93;2.87;;;5.20;99.90;;;;;;4952406;28;20031;-73
2022/02/01 06:40:14;;;;;;;20.25;2.35;;;5.30;99.90;;;;;;4952423;28;20046;-73
2022/02/01 06:42:40;;;;;;;15.23;2.40;;;5.30;99.80;;;;;;4952428;28;20051;-73
2022/02/01 06:45:06;;;;;;;15.27;2.15;;;5.30;99.70;;;;;;4952975;28;20089;-73
2022/02/01 06:47:32;;;;;;;18.17;2.75;;;5.40;99.80;;;;;;4952260;28;20032;-72
2022/02/01 06:49:57;;;;;;;18.88;2.30;;;5.30;99.70;;;;;;4952304;28;20054;-73
2022/02/01 06:52:23;;;;;;;22.00;2.97;;;5.40;99.90;;;;;;4952519;28;20186;-73
2022/02/01 06:54:49;;;;;;;18.33;2.08;;;5.60;99.90;;;;;;4952301;28;20051;-73
2022/02/01 06:57:17;;;;;;;14.43;2.20;;;5.40;99.80;;;;;;4951779;29;20046;-74
2022/02/01 06:59:43;;;;;;;21.48;2.60;;;5.50;99.80;;;;;;4952438;28;20396;-73
2022/02/01 07:02:08;;;;;;;15.68;2.60;;;5.40;99.80;;;;;;4952351;28;20488;-74
2022/02/01 07:04:34;;;;;;;18.45;3.17;;;5.50;99.80;;;;;;4952182;28;20043;-73
2022/02/01 07:07:00;;;;;;;17.88;2.85;;;5.50;99.80;;;;;;4967498;28;20043;-74
2022/02/01 07:09:28;;;;;;;18.58;2.42;;;5.50;99.80;;;;;;4952659;28;20027;-74
2022/02/01 07:11:54;;;;;;;17.10;2.63;;;5.40;99.90;;;;;;4952262;28;20470;-74
2022/02/01 07:14:20;;;;;;;15.38;3.28;;;5.40;99.90;;;;;;4952290;28;20028;-75
2022/02/01 07:16:45;;;;;;;20.60;2.58;;;5.40;99.90;;;;;;4952197;28;20445;-74
2022/02/01 07:19:11;;;;;;;16.95;2.00;;;5.50;99.90;;;;;;4952146;28;20452;-74
2022/02/01 07:21:36;;;;;;;23.15;3.33;;;5.50;99.90;;;;;;4952385;28;20020;-74
2022/02/01 07:24:05;;;;;;;19.23;2.60;;;5.60;99.90;;;;;;4956149;28;20054;-81
2022/02/01 07:26:31;;;;;;;;;;;5.60;99.90;;;;;;4956597;28;20465;-78
2022/02/01 07:28:57;;;;;;;19.80;1.67;;;5.60;99.80;;;;;;4956119;28;19961;-79
2022/02/01 07:31:22;;;;;;;21.13;2.75;;;5.60;99.90;;;;;;4956264;28;20054;-76
2022/02/01 07:33:48;;;;;;;12.98;2.47;;;5.60;99.80;;;;;;4955892;28;20027;-72
2022/02/01 07:36:17;;;;;;;18.92;2.42;;;5.60;99.90;;;;;;4952475;28;20050;-72
2022/02/01 07:38:43;;;;;;;22.52;2.65;;;5.60;99.90;;;;;;4936240;28;20565;-70
2022/02/01 07:41:08;;;;;;;20.70;3.05;;;5.70;99.90;;;;;;4936281;28;20136;-78
2022/02/01 07:43:34;;;;;;;26.73;2.92;;;5.70;99.90;;;;;;4936674;28;20118;-82
2022/02/01 07:46:10;;;;;;;14.85;1.90;;;5.70;99.90;;;;;;4936349;28;20031;-76
2022/02/01 07:48:36;;;;;;;22.00;2.70;;;5.70;99.90;;;;;;4936101;28;20070;-79
2022/02/01 07:51:01;;;;;;;19.77;2.60;;;5.80;99.80;;;;;;4937043;29;20031;-74
2022/02/01 07:53:27;;;;;;;20.60;2.50;;;5.80;99.90;;;;;;4951059;28;20450;-75
2022/02/01 07:55:52;;;;;;;20.88;2.72;;;5.80;99.70;;;;;;4951505;28;20043;-82
2022/02/01 07:58:18;;;;;;;14.02;2.28;;;5.80;99.60;;;;;;4936790;28;20064;-80
2022/02/01 08:00:44;;;;;;;27.17;2.90;;;5.90;99.50;;;;;;4936215;28;20043;-81
2022/02/01 08:03:11;;;;;;;17.40;2.70;;;5.80;99.50;;;;;;4936470;29;20027;-76
2022/02/01 08:05:38;;;;;;;12.70;2.53;;;5.90;99.60;;;;;;4937328;28;20028;-79
2022/02/01 08:08:04;;;;;;;17.15;1.45;;;5.90;99.50;;;;;;4937434;28;20032;-80
2022/02/01 08:10:44;;;;;;;22.83;2.83;;;6.00;99.40;;;;;;4951493;28;20062;-79
2022/02/01 08:18:48;;;;;;;17.40;2.35;;;6.10;99.20;;;;;;4956418;28;20023;-82
2022/02/01 08:21:00;;;;;;;11.98;1.67;;;6.30;99.20;;;;;;4955346;29;20058;-77
2022/02/01 08:23:26;;;;;;;22.45;2.42;;;6.10;98.90;;;;;;4955477;28;20031;-78
2022/02/01 08:25:53;;;;;;;11.77;1.98;;;6.20;99.00;;;;;;4955257;28;20050;-82
2022/02/01 08:28:20;;;;;;;20.40;2.60;;;6.20;98.80;;;;;;4955669;28;20061;-79
2022/02/01 08:30:50;;;;;;;13.07;1.95;;;6.30;99.00;;;;;;4954752;28;20031;-79
2022/02/01 08:33:15;;;;;;;12.35;1.80;;;6.30;98.60;;;;;;4955431;28;20468;-75
2022/02/01 08:35:41;;;;;;;12.65;2.17;;;6.40;98.50;;;;;;4956188;28;20028;-81
2022/02/01 08:38:06;;;;;;;16.05;2.10;;;6.40;98.40;;;;;;4954644;28;20047;-75
2022/02/01 08:40:32;;;;;;;15.00;2.60;;;6.40;98.70;;;;;;4954918;28;20579;-88
2022/02/01 08:42:57;;;;;;;12.07;2.63;;;6.40;98.00;;;;;;4953848;28;20450;-76
2022/02/01 08:45:25;;;;;;;14.75;1.92;;;6.50;98.10;;;;;;4954874;28;20041;-76
2022/02/01 08:47:55;;;;;;;16.15;2.58;;;6.50;98.30;;;;;;4955489;28;20378;-80
2022/02/01 08:50:26;;;;;;;15.15;2.33;;;6.50;97.70;;;;;;4955009;28;20039;-83
2022/02/01 08:52:53;;;;;;;22.27;3.00;;;6.60;97.80;;;;;;4956051;28;20415;-84
2022/02/01 08:55:32;;;;;;;11.45;2.63;;;6.50;97.80;;;;;;4954299;28;20106;-75
2022/02/01 08:57:58;;;;;;;14.40;2.45;;;6.60;97.50;;;;;;4955340;28;20027;-85
2022/02/01 09:00:24;;;;;;;15.43;2.08;;;6.60;97.20;;;;;;4955963;28;20043;-82
2022/02/01 09:02:50;;;;;;;16.60;2.00;;;6.50;97.10;;;;;;4952692;28;20035;-78
2022/02/01 09:05:15;;;;;;;17.17;2.25;;;6.60;97.10;;;;;;4949838;28;20067;-74
2022/02/01 09:07:41;;;;;;;13.13;1.80;;;6.60;97.00;;;;;;4936014;28;20043;-73
2022/02/01 09:10:07;;;;;;;17.23;2.13;;;6.60;96.90;;;;;;4950883;28;20094;-79
2022/02/01 09:12:33;;;;;;;12.23;2.33;;;6.70;96.70;;;;;;4951433;28;20055;-88
2022/02/01 09:14:58;;;;;;;11.23;2.20;;;6.70;96.70;;;;;;4938484;29;20110;-93
2022/02/01 09:17:24;;;;;;;17.65;2.58;;;6.70;96.60;;;;;;4937889;28;20042;-84
2022/02/01 09:19:49;;;;;;;15.30;2.03;;;6.80;96.70;;;;;;4937719;28;20039;-86
2022/02/01 09:22:15;;;;;;;14.43;2.30;;;6.90;96.80;;;;;;4935493;28;20043;-79
2022/02/01 09:24:42;;;;;;;23.65;2.75;;;6.90;96.70;;;;;;4940732;28;20030;-79
2022/02/01 09:27:10;;;;;;;13.57;2.53;;;7.00;96.70;;;;;;4955128;28;20473;-85
2022/02/01 09:29:36;;;;;;;17.30;3.22;;;7.00;96.70;;;;;;4955800;28;20095;-83
2022/02/01 09:32:04;;;;;;;17.73;3.15;;;7.10;96.60;;;;;;4954381;28;20496;-84
2022/02/01 09:34:30;;;;;;;16.30;2.53;;;7.00;96.30;;;;;;4954625;28;20484;-82
2022/02/01 09:36:56;;;;;;;21.70;1.95;;;6.90;96.40;;;;;;4954760;28;20192;-83
2022/02/01 09:39:23;;;;;;;15.45;2.47;;;7.00;96.60;;;;;;4954659;28;20038;-80
2022/02/01 09:41:50;;;;;;;;;;;7.00;96.50;;;;;;4935986;28;20070;-81
2022/02/01 09:44:22;;;;;;;15.45;3.05;;;7.10;96.60;;;;;;4937020;28;19958;-90
2022/02/01 09:46:50;;;;;;;13.48;3.50;;;7.10;96.60;;;;;;4935585;28;20036;-80
2022/02/01 09:49:19;;;;;;;15.60;3.25;;;7.00;96.60;;;;;;4937656;28;20533;-88
2022/02/01 09:51:57;;;;;;;23.25;4.22;;;7.10;96.60;;;;;;4937693;28;20063;-82
2022/02/01 09:54:27;;;;;;;12.27;2.25;;;7.10;96.70;;;;;;4935387;29;20041;-81
2022/02/01 09:56:54;;;;;;;11.85;2.78;;;7.10;96.80;;;;;;4935080;29;20120;-82
2022/02/01 09:59:30;;;;;;;14.60;2.93;;;7.20;96.70;;;;;;4935958;28;20032;-79
2022/02/01 10:01:57;;;;;;;24.63;2.85;;;7.20;96.50;;;;;;4935233;29;20161;-80
2022/02/01 10:04:29;;;;;;;20.90;3.38;;;7.20;96.40;;;;;;4943937;28;20031;-87
2022/02/01 10:07:07;;;;;;;18.27;3.30;;;7.10;96.50;;;;;;4953334;28;20027;-76
2022/02/01 10:09:33;;;;;;;13.85;3.35;;;7.10;96.60;;;;;;4953162;28;20394;-77
2022/02/01 10:11:58;;;;;;;15.07;3.45;;;7.10;96.80;;;;;;4952502;28;20033;-75
2022/02/01 10:14:27;;;;;;;13.30;3.63;;;7.10;98.20;;;;;;4953047;28;20074;-75
2022/02/01 10:17:07;;;;;;;16.77;3.85;;;7.10;97.20;;;;;;4955651;28;20031;-89
2022/02/01 10:19:32;;;;;;;12.63;4.03;;;6.90;97.70;;;;;;4958153;28;20019;-90
2022/02/01 10:22:00;;;;;;;19.65;4.55;;;6.90;97.80;;;;;;4954788;28;20086;-95
2022/02/01 10:24:38;;;;;;;10.77;3.15;;;6.90;97.80;;;;;;4956023;28;20038;-87
2022/02/01 10:27:09;;;;;;;15.07;3.58;;;6.90;97.80;;;;;;4957443;28;20561;-88
2022/02/01 10:29:36;;;;;;;10.23;3.65;;;6.90;97.90;;;;;;4954131;28;20039;-76
2022/02/01 10:32:19;;;;;;;10.68;3.88;;;6.90;97.90;;;;;;4952754;28;20023;-74
2022/02/01 10:34:48;;;;;;;8.93;3.13;;;6.80;98.30;;;;;;4954513;28;20062;-86
2022/02/01 10:37:17;;;;;;;;;;;6.90;98.30;;;;;;4953192;28;20118;-82
2022/02/01 10:39:43;;;;;;;12.57;4.82;;;6.80;98.20;;;;;;4954481;28;19907;-89
2022/02/01 10:42:12;;;;;;;15.48;4.43;;;6.90;98.40;;;;;;4955774;28;20065;-76
2022/02/01 10:44:50;;;;;;;19.27;4.90;;;6.90;98.30;;;;;;4952579;28;20264;-76
2022/02/01 10:47:30;;;;;;;13.48;4.90;;;7.00;98.40;;;;;;4952555;28;20039;-76
2022/02/01 10:50:02;;;;;;;15.40;4.88;;;7.00;98.50;;;;;;4952333;28;20102;-76
2022/02/01 10:52:32;;;;;;;17.17;5.05;;;6.90;98.60;;;;;;4952711;28;20114;-78
2022/02/01 10:54:58;;;;;;;11.90;4.45;;;6.80;99.10;;;;;;4952486;28;20094;-78
2022/02/01 10:57:25;;;;;;;10.10;4.53;;;6.90;99.30;;;;;;4954702;28;20508;-79
2022/02/01 10:59:51;;;;;;;11.50;5.15;;;6.80;99.60;;;;;;4956904;28;20544;-81
2022/02/01 11:02:18;;;;;;;11.82;5.65;;;6.80;99.60;;;;;;4955411;28;20042;-80
2022/02/01 11:04:45;;;;;;;10.73;5.30;;;6.80;99.90;;;;;;4956704;28;20043;-81
2022/02/01 11:07:10;;;;;;;14.35;4.95;;;6.70;99.90;;;;;;4971491;28;20046;-80
2022/02/01 11:09:36;;;;;;;19.48;5.82;;;6.80;99.90;;;;;;4955415;28;20032;-79
2022/02/01 11:12:10;;;;;;;14.23;5.95;;;6.80;99.90;;;;;;4956735;28;20045;-77
2022/02/01 11:14:42;;;;;;;13.00;4.95;;;6.70;99.90;;;;;;4956541;28;20063;-79
2022/02/01 11:17:20;;;;;;;7.65;4.65;;;6.70;99.90;;;;;;4956172;28;20023;-83
2022/02/01 11:19:51;;;;;;;11.05;5.95;;;6.70;99.90;;;;;;4957109;28;20412;-83
2022/02/01 11:22:20;;;;;;;7.00;4.65;;;6.70;99.90;;;;;;4957326;28;20045;-83
2022/02/01 11:24:59;;;;;;;11.13;4.80;;;6.60;99.90;;;;;;4956859;28;20058;-82
2022/02/01 11:27:59;;;;;;;10.45;4.80;;;6.70;99.90;;;;;;4956872;28;20027;-84
2022/02/01 11:30:38;;;;;;;10.65;4.90;;;6.70;99.90;;;;;;4956755;28;20035;-86
2022/02/01 11:33:07;;;;;;;12.23;4.47;;;6.70;99.90;;;;;;4972182;28;20590;-83
2022/02/01 11:35:33;;;;;;;7.78;4.30;;;6.70;99.90;;;;;;4956444;28;20027;-73
2022/02/01 11:38:17;;;;;;;7.78;4.10;;;6.70;99.90;;;;;;4954485;28;20035;-77
2022/02/01 11:40:48;;;;;;;11.15;4.10;;;6.80;99.90;;;;;;4955358;28;20031;-78
2022/02/01 11:43:17;;;;;;;14.23;5.97;;;6.80;99.90;;;;;;4954543;28;20334;-75
2022/02/01 11:45:52;;;;;;;7.85;4.10;;;6.90;99.90;;;;;;4954461;28;20031;-77
2022/02/01 11:48:40;;;;;;;7.75;3.60;;;6.80;99.90;;;;;;4954432;29;20038;-78
2022/02/01 11:51:12;;;;;;;5.57;3.78;;;6.90;99.90;;;;;;4954887;28;20333;-76
2022/02/01 11:53:43;;;;;;;9.07;3.85;;;6.90;99.90;;;;;;4955414;28;20023;-79
2022/02/01 11:56:13;;;;;;;6.82;3.35;;;7.00;99.90;;;;;;4970453;28;20441;-79
2022/02/01 11:58:42;;;;;;;6.00;3.20;;;6.90;99.90;;;;;;4955084;28;20489;-78
2022/02/01 12:01:30;;;;;;;5.78;3.15;;;6.80;99.90;;;;;;4955004;28;20109;-83
2022/02/01 12:04:05;;;;;;;5.35;2.67;;;6.90;99.90;;;;;;4954424;28;20042;-77
2022/02/01 12:07:06;;;;;;;4.53;2.95;;;7.00;99.90;;;;;;4970191;28;20114;-81
2022/02/01 12:09:32;;;;;;;4.68;2.70;;;7.00;99.90;;;;;;4956054;28;20027;-78
2022/02/01 12:11:59;;;;;;;4.63;2.78;;;7.00;99.90;;;;;;4956083;28;20469;-77
2022/02/01 12:14:26;;;;;;;3.20;2.20;;;7.00;99.90;;;;;;4954727;28;20043;-80
2022/02/01 12:16:53;;;;;;;3.90;1.95;;;7.00;99.90;;;;;;4955696;28;20032;-79
2022/02/01 12:19:52;;;;;;;2.88;2.33;;;7.10;99.90;;;;;;4954521;28;20027;-83
2022/02/01 12:22:36;;;;;;;4.50;2.45;;;7.10;99.90;;;;;;4955755;28;20110;-84
2022/02/01 12:25:07;;;;;;;3.67;2.25;;;7.20;99.90;;;;;;4955867;28;20055;-85
2022/02/01 12:27:40;;;;;;;4.03;2.20;;;7.10;99.90;;;;;;4955914;28;20027;-79
2022/02/01 12:30:09;;;;;;;3.65;2.20;;;7.20;99.90;;;;;;4955985;28;20027;-82
2022/02/01 12:32:35;;;;;;;;;;;7.20;99.90;;;;;;4954387;28;20038;-79
2022/02/01 12:35:01;;;;;;;3.10;2.00;;;7.30;99.90;;;;;;4956512;28;19917;-80
2022/02/01 12:37:27;;;;;;;3.20;1.88;;;7.40;99.90;;;;;;4955438;28;20063;-82
2022/02/01 12:40:07;;;;;;;5.13;2.25;;;7.40;99.90;;;;;;4955300;28;20062;-80
2022/02/01 12:42:42;;;;;;;4.70;2.28;;;7.30;99.90;;;;;;4956737;28;20409;-82
2022/02/01 12:48:04;;;;;;;7.03;2.20;;;7.40;99.90;;;;;;4950928;28;20049;-85
2022/02/01 12:50:31;;;;;;;2.15;1.95;;;7.40;99.90;;;;;;4934531;29;20038;-82
2022/02/01 12:53:02;;;;;;;4.07;2.13;;;7.50;99.90;;;;;;4936293;28;20047;-86
2022/02/01 12:55:27;;;;;;;3.60;2.03;;;7.50;99.90;;;;;;4936509;28;20480;-87
2022/02/01 12:57:54;;;;;;;6.00;3.30;;;7.50;99.90;;;;;;4936524;28;20036;-73
2022/02/01 13:00:22;;;;;;;3.38;2.40;;;7.60;99.90;;;;;;4937006;29;20028;-85
2022/02/01 13:02:55;;;;;;;4.18;2.30;;;7.60;99.90;;;;;;4937743;28;20119;-74
2022/02/01 13:05:21;;;;;;;3.28;2.33;;;7.60;99.90;;;;;;4934870;29;20032;-81
2022/02/01 13:21:07;;;;;;;3.08;2.20;;;7.50;99.90;;;;;;4954332;28;20353;-74
2022/02/01 13:23:39;;;;;;;2.25;1.50;;;7.50;99.90;;;;;;4953836;28;20066;-75
2022/02/01 13:26:08;;;;;;;1.98;1.48;;;7.60;99.90;;;;;;4953983;28;20360;-76
2022/02/01 13:28:35;;;;;;;3.33;1.60;;;7.60;99.90;;;;;;4953564;28;20126;-77
2022/02/01 13:31:07;;;;;;;6.85;2.63;;;7.60;99.90;;;;;;4953952;28;20068;-75
2022/02/01 13:33:44;;;;;;;10.25;3.13;;;7.50;99.90;;;;;;4971411;28;20027;-88
2022/02/01 13:36:11;;;;;;;4.90;2.10;;;7.60;99.90;;;;;;4956921;28;20081;-84
2022/02/01 13:38:53;;;;;;;4.68;2.65;;;7.70;99.90;;;;;;4954201;29;20028;-81
2022/02/01 13:41:24;;;;;;;3.30;1.13;;;7.70;99.90;;;;;;4954096;28;20050;-82
2022/02/01 13:43:56;;;;;;;2.92;1.67;;;7.70;99.90;;;;;;4969567;28;20027;-84
2022/02/01 13:46:30;;;;;;;3.58;1.30;;;7.70;99.90;;;;;;4955278;28;20031;-78
2022/02/01 13:49:10;;;;;;;1.80;1.25;;;7.60;99.90;;;;;;4958884;28;20050;-84
2022/02/01 13:51:50;;;;;;;2.70;1.60;;;7.70;99.90;;;;;;4955992;28;20031;-85
2022/02/01 13:54:17;;;;;;;2.30;1.73;;;7.70;99.90;;;;;;4954716;28;20026;-81
2022/02/01 13:56:46;;;;;;;8.63;5.03;;;7.70;99.90;;;;;;4954104;28;20117;-82
2022/02/01 13:59:16;;;;;;;2.33;1.70;;;7.60;99.90;;;;;;4954502;28;20031;-82
2022/02/01 14:01:45;;;;;;;3.40;1.73;;;7.60;99.90;;;;;;4953013;28;20373;-90
2022/02/01 14:04:18;;;;;;;4.72;1.90;;;7.70;99.90;;;;;;4954381;28;20023;-86
2022/02/01 14:06:58;;;;;;;1.98;1.60;;;7.60;99.90;;;;;;4954593;28;20389;-85
2022/02/01 14:09:52;;;;;;;2.08;1.58;;;7.70;99.90;;;;;;4954355;28;20059;-82
2022/02/01 14:24:06;;;;;;;7.53;3.45;;;7.70;99.90;;;;;;4956994;28;20094;-88
2022/02/01 14:28:55;;;;;;;2.53;1.92;;;7.70;99.90;;;;;;4958049;28;20075;-87
2022/02/01 14:34:18;;;;;;;2.33;1.73;;;7.70;99.90;;;;;;4961361;28;20078;-83
2022/02/01 14:36:47;;;;;;;4.72;1.77;;;7.80;99.90;;;;;;4960276;28;20562;-87
2022/02/01 14:44:45;;;;;;;2.88;1.70;;;7.90;99.90;;;;;;4962599;28;20054;-87
2022/02/01 14:47:20;;;;;;;1.95;1.75;;;7.90;99.90;;;;;;4978366;28;20114;-91
2022/02/01 14:49:48;;;;;;;4.63;1.83;;;7.90;99.90;;;;;;4961529;28;20043;-85
2022/02/01 14:52:14;;;;;;;1.73;1.60;;;7.90;99.90;;;;;;4962435;28;20098;-89
2022/02/01 14:54:47;;;;;;;2.85;1.80;;;7.90;99.90;;;;;;4962876;28;20457;-90
2022/02/01 15:13:29;;;;;;;5.57;2.10;;;8.20;99.90;;;;;;4961656;28;20093;-83
2022/02/01 15:15:55;;;;;;;3.03;1.95;;;8.10;99.90;;;;;;4960302;28;20367;-86